TimeCDT,TemperatureF,Dew PointF,Humidity,Sea Level PressureIn,VisibilityMPH,Wind Direction,Wind SpeedMPH,Gust SpeedMPH,PrecipitationIn,Events,Conditions,WindDirDegrees,DateUTC
12:53 AM,60.1,57.9,93,29.70,8.0,NE,8.1,-,0.06,Rain,Light Rain,40,2012-10-01 05:53:00
1:53 AM,59.0,57.9,96,29.68,6.0,NNE,10.4,18.4,0.15,Rain,Light Rain,30,2012-10-01 06:53:00
2:53 AM,59.0,57.0,93,29.65,6.0,NE,15.0,-,0.02,Rain,Light Rain,40,2012-10-01 07:53:00
3:24 AM,59.0,57.2,94,29.65,10.0,NNE,11.5,20.7,0.02,Rain,Light Rain,30,2012-10-01 08:24:00
3:42 AM,59.0,57.2,94,29.64,10.0,NNE,12.7,21.9,0.02,Rain,Light Rain,30,2012-10-01 08:42:00
4:08 AM,59.0,57.2,94,29.62,10.0,NE,17.3,24.2,0.01,Rain,Light Rain,50,2012-10-01 09:08:00
4:17 AM,59.0,57.2,94,29.60,10.0,ENE,19.6,27.6,0.01,Rain,Light Rain,60,2012-10-01 09:17:00
4:53 AM,59.0,59.0,100,29.60,10.0,NNE,12.7,19.6,0.02,Rain,Light Rain,30,2012-10-01 09:53:00
5:28 AM,59.0,-9999,N/A,29.61,10.0,North,11.5,20.7,0.01,Rain,Light Rain,10,2012-10-01 10:28:00
6:11 AM,59.0,-9999,N/A,29.62,10.0,North,9.2,19.6,0.00,Rain,Light Rain,350,2012-10-01 11:11:00
6:18 AM,59.0,-9999,N/A,29.64,10.0,NNW,5.8,19.6,0.00,Rain,Light Rain,330,2012-10-01 11:18:00
6:53 AM,59.0,-9999,N/A,29.61,9.0,NNE,12.7,-,0.02,Rain,Light Rain,30,2012-10-01 11:53:00
7:14 AM,59.0,-9999,N/A,29.60,6.0,NNE,17.3,24.2,0.02,Rain,Light Rain,30,2012-10-01 12:14:00
7:53 AM,59.0,59.0,100,29.62,6.0,NNE,13.8,20.7,0.12,Rain,Light Rain,20,2012-10-01 12:53:00
8:37 AM,59.0,-9999,N/A,29.59,5.0,NNE,21.9,28.8,0.09,Rain,Light Rain,30,2012-10-01 13:37:00
8:44 AM,59.0,-9999,N/A,29.59,6.0,NNE,18.4,28.8,0.09,Rain,Light Rain,30,2012-10-01 13:44:00
8:53 AM,59.0,-9999,N/A,29.59,5.0,NNE,18.4,27.6,0.11,Rain,Light Rain,30,2012-10-01 13:53:00
9:29 AM,60.8,-9999,N/A,29.64,4.0,NNW,6.9,16.1,0.10,Rain,Light Rain,330,2012-10-01 14:29:00
9:53 AM,60.1,-9999,N/A,29.62,8.0,NNW,11.5,18.4,0.12,Rain,Light Rain,340,2012-10-01 14:53:00
10:53 AM,61.0,-9999,N/A,29.62,10.0,North,13.8,20.7,0.00,,Overcast,10,2012-10-01 15:53:00
11:35 AM,62.6,-9999,N/A,29.63,10.0,NNE,13.8,21.9,N/A,,Overcast,20,2012-10-01 16:35:00
11:46 AM,62.6,-9999,N/A,29.63,10.0,NNE,15.0,20.7,N/A,,Overcast,20,2012-10-01 16:46:00
11:53 AM,62.1,-9999,N/A,29.62,10.0,NNE,15.0,21.9,N/A,,Overcast,20,2012-10-01 16:53:00
12:53 PM,63.0,63.0,100,29.62,10.0,North,16.1,23.0,N/A,,Overcast,360,2012-10-01 17:53:00
1:53 PM,63.0,57.0,81,29.62,10.0,North,13.8,21.9,N/A,,Overcast,350,2012-10-01 18:53:00
2:53 PM,64.9,55.9,73,29.62,10.0,North,15.0,25.3,N/A,,Overcast,360,2012-10-01 19:53:00
3:35 PM,66.2,55.4,68,29.63,10.0,North,15.0,21.9,N/A,,Overcast,360,2012-10-01 20:35:00
4:53 PM,66.0,55.0,68,29.64,10.0,North,11.5,19.6,N/A,,Scattered Clouds,360,2012-10-01 21:53:00
5:53 PM,66.9,54.0,63,29.65,10.0,North,13.8,23.0,N/A,,Partly Cloudy,360,2012-10-01 22:53:00
6:53 PM,64.0,54.0,70,29.67,10.0,North,6.9,-,N/A,,Mostly Cloudy,350,2012-10-01 23:53:00
7:53 PM,61.0,54.0,78,29.69,10.0,North,5.8,-,N/A,,Partly Cloudy,350,2012-10-02 00:53:00
8:53 PM,59.0,54.0,83,29.71,10.0,North,4.6,-,N/A,,Clear,350,2012-10-02 01:53:00
9:53 PM,60.1,53.1,78,29.74,10.0,North,6.9,-,N/A,,Clear,360,2012-10-02 02:53:00
10:53 PM,55.9,53.1,90,29.75,10.0,NNW,4.6,-,N/A,,Mostly Cloudy,330,2012-10-02 03:53:00
11:53 PM,55.0,52.0,89,29.74,10.0,NNW,4.6,-,N/A,,Clear,330,2012-10-02 04:53:00